sensor_id;sensor_type;location;lat;lon;timestamp;temperature;humidity
52941;DHT22;62001;53.366;6.636;2023-05-23T00:02:08;13.60;99.90
52941;DHT22;62001;53.366;6.636;2023-05-23T00:04:37;13.60;99.90
52941;DHT22;62001;53.366;6.636;2023-05-23T00:07:03;13.60;99.90
52941;DHT22;62001;53.366;6.636;2023-05-23T00:09:30;13.60;99.90
52941;DHT22;62001;53.366;6.636;2023-05-23T00:11:56;13.60;99.90
52941;DHT22;62001;53.366;6.636;2023-05-23T00:14:21;13.60;99.90
52941;DHT22;62001;53.366;6.636;2023-05-23T00:16:48;13.60;99.90
52941;DHT22;62001;53.366;6.636;2023-05-23T00:19:14;13.60;99.90
52941;DHT22;62001;53.366;6.636;2023-05-23T00:21:41;13.60;99.90
52941;DHT22;62001;53.366;6.636;2023-05-23T00:24:13;13.60;99.90
52941;DHT22;62001;53.366;6.636;2023-05-23T00:26:44;13.60;99.90
52941;DHT22;62001;53.366;6.636;2023-05-23T00:29:10;13.50;99.90
52941;DHT22;62001;53.366;6.636;2023-05-23T00:31:44;13.50;99.90
52941;DHT22;62001;53.366;6.636;2023-05-23T00:34:14;13.50;99.90
52941;DHT22;62001;53.366;6.636;2023-05-23T00:36:42;13.50;99.90
52941;DHT22;62001;53.366;6.636;2023-05-23T00:39:12;13.50;99.90
52941;DHT22;62001;53.366;6.636;2023-05-23T00:41:48;13.40;99.90
52941;DHT22;62001;53.366;6.636;2023-05-23T00:44:14;13.40;99.90
52941;DHT22;62001;53.366;6.636;2023-05-23T00:46:40;13.30;99.90
52941;DHT22;62001;53.366;6.636;2023-05-23T00:49:08;13.30;99.90
52941;DHT22;62001;53.366;6.636;2023-05-23T00:51:34;13.30;99.90
52941;DHT22;62001;53.366;6.636;2023-05-23T00:54:01;13.30;99.90
52941;DHT22;62001;53.366;6.636;2023-05-23T00:56:29;13.30;99.90
52941;DHT22;62001;53.366;6.636;2023-05-23T00:58:55;13.30;99.90
52941;DHT22;62001;53.366;6.636;2023-05-23T01:01:21;13.30;99.90
52941;DHT22;62001;53.366;6.636;2023-05-23T01:03:47;13.20;99.90
52941;DHT22;62001;53.366;6.636;2023-05-23T01:06:13;13.30;99.90
52941;DHT22;62001;53.366;6.636;2023-05-23T01:08:40;13.30;99.90
52941;DHT22;62001;53.366;6.636;2023-05-23T01:11:27;13.30;99.90
52941;DHT22;62001;53.366;6.636;2023-05-23T01:14:00;13.20;99.90
52941;DHT22;62001;53.366;6.636;2023-05-23T01:22:01;13.10;99.90
52941;DHT22;62001;53.366;6.636;2023-05-23T01:24:56;13.00;99.90
52941;DHT22;62001;53.366;6.636;2023-05-23T01:27:51;13.00;99.90
52941;DHT22;62001;53.366;6.636;2023-05-23T01:30:19;12.90;99.90
52941;DHT22;62001;53.366;6.636;2023-05-23T01:32:50;12.80;99.90
52941;DHT22;62001;53.366;6.636;2023-05-23T01:35:24;12.80;99.90
52941;DHT22;62001;53.366;6.636;2023-05-23T01:37:54;12.70;99.90
52941;DHT22;62001;53.366;6.636;2023-05-23T01:40:21;12.70;99.90
52941;DHT22;62001;53.366;6.636;2023-05-23T01:42:47;12.60;99.90
52941;DHT22;62001;53.366;6.636;2023-05-23T01:45:14;12.50;99.90
52941;DHT22;62001;53.366;6.636;2023-05-23T01:47:41;12.50;99.90
52941;DHT22;62001;53.366;6.636;2023-05-23T01:50:08;12.50;99.90
52941;DHT22;62001;53.366;6.636;2023-05-23T01:52:35;12.50;99.90
52941;DHT22;62001;53.366;6.636;2023-05-23T01:55:04;12.40;99.90
52941;DHT22;62001;53.366;6.636;2023-05-23T01:57:35;12.40;99.90
52941;DHT22;62001;53.366;6.636;2023-05-23T02:00:03;12.40;99.90
52941;DHT22;62001;53.366;6.636;2023-05-23T02:02:34;12.30;99.90
52941;DHT22;62001;53.366;6.636;2023-05-23T02:05:00;12.30;99.90
52941;DHT22;62001;53.366;6.636;2023-05-23T02:07:26;12.20;99.90
52941;DHT22;62001;53.366;6.636;2023-05-23T02:09:51;12.20;99.90
52941;DHT22;62001;53.366;6.636;2023-05-23T02:12:17;12.20;99.90
52941;DHT22;62001;53.366;6.636;2023-05-23T02:14:43;12.20;99.90
52941;DHT22;62001;53.366;6.636;2023-05-23T02:17:09;12.20;99.90
52941;DHT22;62001;53.366;6.636;2023-05-23T02:19:35;12.20;99.90
52941;DHT22;62001;53.366;6.636;2023-05-23T02:22:02;12.20;99.90
52941;DHT22;62001;53.366;6.636;2023-05-23T02:24:28;12.10;99.90
52941;DHT22;62001;53.366;6.636;2023-05-23T02:26:54;12.10;99.90
52941;DHT22;62001;53.366;6.636;2023-05-23T02:29:20;12.10;99.90
52941;DHT22;62001;53.366;6.636;2023-05-23T02:31:46;12.00;99.90
52941;DHT22;62001;53.366;6.636;2023-05-23T02:34:12;11.90;99.90
52941;DHT22;62001;53.366;6.636;2023-05-23T02:36:38;11.90;99.90
52941;DHT22;62001;53.366;6.636;2023-05-23T02:39:04;11.90;99.90
52941;DHT22;62001;53.366;6.636;2023-05-23T02:41:30;11.90;99.90
52941;DHT22;62001;53.366;6.636;2023-05-23T02:43:57;11.80;99.90
52941;DHT22;62001;53.366;6.636;2023-05-23T02:46:23;11.80;99.90
52941;DHT22;62001;53.366;6.636;2023-05-23T02:48:48;11.70;99.90
52941;DHT22;62001;53.366;6.636;2023-05-23T02:51:14;11.70;99.90
52941;DHT22;62001;53.366;6.636;2023-05-23T02:53:40;11.80;99.90
52941;DHT22;62001;53.366;6.636;2023-05-23T02:56:07;11.80;99.90
52941;DHT22;62001;53.366;6.636;2023-05-23T02:58:34;11.80;99.90
52941;DHT22;62001;53.366;6.636;2023-05-23T03:01:03;11.80;99.90
52941;DHT22;62001;53.366;6.636;2023-05-23T03:03:29;11.80;99.90
52941;DHT22;62001;53.366;6.636;2023-05-23T03:06:02;11.80;99.90
52941;DHT22;62001;53.366;6.636;2023-05-23T03:08:29;11.90;99.90
52941;DHT22;62001;53.366;6.636;2023-05-23T03:10:55;11.80;99.90
52941;DHT22;62001;53.366;6.636;2023-05-23T03:13:21;11.80;99.90
52941;DHT22;62001;53.366;6.636;2023-05-23T03:15:47;11.90;99.90
52941;DHT22;62001;53.366;6.636;2023-05-23T03:18:13;11.90;99.90
52941;DHT22;62001;53.366;6.636;2023-05-23T03:20:38;11.90;99.90
52941;DHT22;62001;53.366;6.636;2023-05-23T03:23:04;11.90;99.90
52941;DHT22;62001;53.366;6.636;2023-05-23T03:25:30;11.90;99.90
52941;DHT22;62001;53.366;6.636;2023-05-23T03:27:56;11.90;99.90
52941;DHT22;62001;53.366;6.636;2023-05-23T03:30:22;11.90;99.90
52941;DHT22;62001;53.366;6.636;2023-05-23T03:32:48;11.90;99.90
52941;DHT22;62001;53.366;6.636;2023-05-23T03:35:14;11.90;99.90
52941;DHT22;62001;53.366;6.636;2023-05-23T03:37:40;11.90;99.90
52941;DHT22;62001;53.366;6.636;2023-05-23T03:40:06;11.90;99.90
52941;DHT22;62001;53.366;6.636;2023-05-23T03:42:32;11.90;99.90
52941;DHT22;62001;53.366;6.636;2023-05-23T03:44:58;11.80;99.90
52941;DHT22;62001;53.366;6.636;2023-05-23T03:47:24;11.80;99.90
52941;DHT22;62001;53.366;6.636;2023-05-23T03:49:50;11.80;99.90
52941;DHT22;62001;53.366;6.636;2023-05-23T03:52:16;11.80;99.90
52941;DHT22;62001;53.366;6.636;2023-05-23T03:54:42;11.80;99.90
52941;DHT22;62001;53.366;6.636;2023-05-23T03:57:07;11.80;99.90
52941;DHT22;62001;53.366;6.636;2023-05-23T03:59:33;11.80;99.90
52941;DHT22;62001;53.366;6.636;2023-05-23T04:01:59;11.80;99.90
52941;DHT22;62001;53.366;6.636;2023-05-23T04:04:26;11.80;99.90
52941;DHT22;62001;53.366;6.636;2023-05-23T04:06:52;11.80;99.90
52941;DHT22;62001;53.366;6.636;2023-05-23T04:09:18;11.80;99.90
52941;DHT22;62001;53.366;6.636;2023-05-23T04:11:44;11.80;99.90
52941;DHT22;62001;53.366;6.636;2023-05-23T04:14:10;11.70;99.90
52941;DHT22;62001;53.366;6.636;2023-05-23T04:16:37;11.80;99.90
52941;DHT22;62001;53.366;6.636;2023-05-23T04:19:06;11.80;99.90
52941;DHT22;62001;53.366;6.636;2023-05-23T04:21:35;11.80;99.90
52941;DHT22;62001;53.366;6.636;2023-05-23T04:24:01;11.80;99.90
52941;DHT22;62001;53.366;6.636;2023-05-23T04:26:27;11.80;99.90
52941;DHT22;62001;53.366;6.636;2023-05-23T04:28:53;11.80;99.90
52941;DHT22;62001;53.366;6.636;2023-05-23T04:31:19;11.70;99.90
52941;DHT22;62001;53.366;6.636;2023-05-23T04:33:47;11.70;99.90
52941;DHT22;62001;53.366;6.636;2023-05-23T04:36:13;11.70;99.90
52941;DHT22;62001;53.366;6.636;2023-05-23T04:38:39;11.70;99.90
52941;DHT22;62001;53.366;6.636;2023-05-23T04:41:08;11.70;99.90
52941;DHT22;62001;53.366;6.636;2023-05-23T04:43:35;11.70;99.90
52941;DHT22;62001;53.366;6.636;2023-05-23T04:46:08;11.70;99.90
52941;DHT22;62001;53.366;6.636;2023-05-23T04:48:35;11.60;99.90
52941;DHT22;62001;53.366;6.636;2023-05-23T04:51:02;11.60;99.90
52941;DHT22;62001;53.366;6.636;2023-05-23T04:53:31;11.50;99.90
52941;DHT22;62001;53.366;6.636;2023-05-23T04:55:56;11.50;99.90
52941;DHT22;62001;53.366;6.636;2023-05-23T04:58:23;11.40;99.90
52941;DHT22;62001;53.366;6.636;2023-05-23T05:00:49;11.40;99.90
52941;DHT22;62001;53.366;6.636;2023-05-23T05:03:15;11.30;99.90
52941;DHT22;62001;53.366;6.636;2023-05-23T05:05:41;11.30;99.90
52941;DHT22;62001;53.366;6.636;2023-05-23T05:08:06;11.30;99.90
52941;DHT22;62001;53.366;6.636;2023-05-23T05:10:32;11.30;99.90
52941;DHT22;62001;53.366;6.636;2023-05-23T05:12:58;11.20;99.90
52941;DHT22;62001;53.366;6.636;2023-05-23T05:15:24;11.20;99.90
52941;DHT22;62001;53.366;6.636;2023-05-23T05:17:50;11.20;99.90
52941;DHT22;62001;53.366;6.636;2023-05-23T05:20:16;11.10;99.90
52941;DHT22;62001;53.366;6.636;2023-05-23T05:22:42;11.10;99.90
52941;DHT22;62001;53.366;6.636;2023-05-23T05:25:09;11.10;99.90
52941;DHT22;62001;53.366;6.636;2023-05-23T05:27:35;11.10;99.90
52941;DHT22;62001;53.366;6.636;2023-05-23T05:30:08;11.20;99.90
52941;DHT22;62001;53.366;6.636;2023-05-23T05:32:34;11.20;99.90
52941;DHT22;62001;53.366;6.636;2023-05-23T05:35:01;11.20;99.90
52941;DHT22;62001;53.366;6.636;2023-05-23T05:37:28;11.10;99.90
52941;DHT22;62001;53.366;6.636;2023-05-23T05:39:54;11.10;99.90
52941;DHT22;62001;53.366;6.636;2023-05-23T05:42:20;11.10;99.90
52941;DHT22;62001;53.366;6.636;2023-05-23T05:44:47;11.10;99.90
52941;DHT22;62001;53.366;6.636;2023-05-23T05:47:13;11.10;99.90
52941;DHT22;62001;53.366;6.636;2023-05-23T05:49:39;11.10;99.90
52941;DHT22;62001;53.366;6.636;2023-05-23T05:52:07;11.10;99.90
52941;DHT22;62001;53.366;6.636;2023-05-23T05:54:33;11.10;99.90
52941;DHT22;62001;53.366;6.636;2023-05-23T05:56:59;11.00;99.90
52941;DHT22;62001;53.366;6.636;2023-05-23T05:59:25;11.10;99.90
52941;DHT22;62001;53.366;6.636;2023-05-23T06:01:51;11.00;99.90
52941;DHT22;62001;53.366;6.636;2023-05-23T06:04:17;11.00;99.90
52941;DHT22;62001;53.366;6.636;2023-05-23T06:06:43;11.00;99.90
52941;DHT22;62001;53.366;6.636;2023-05-23T06:09:09;11.00;99.90
52941;DHT22;62001;53.366;6.636;2023-05-23T06:11:36;11.00;99.90
52941;DHT22;62001;53.366;6.636;2023-05-23T06:14:08;11.00;99.90
52941;DHT22;62001;53.366;6.636;2023-05-23T06:16:34;11.00;99.90
52941;DHT22;62001;53.366;6.636;2023-05-23T06:19:00;11.00;99.90
52941;DHT22;62001;53.366;6.636;2023-05-23T06:21:26;11.20;99.90
52941;DHT22;62001;53.366;6.636;2023-05-23T06:23:52;11.40;99.90
52941;DHT22;62001;53.366;6.636;2023-05-23T06:26:18;11.40;99.90
52941;DHT22;62001;53.366;6.636;2023-05-23T06:28:44;11.40;99.90
52941;DHT22;62001;53.366;6.636;2023-05-23T06:31:09;11.40;99.90
52941;DHT22;62001;53.366;6.636;2023-05-23T06:33:35;11.40;99.90
52941;DHT22;62001;53.366;6.636;2023-05-23T06:36:01;11.30;99.90
52941;DHT22;62001;53.366;6.636;2023-05-23T06:38:30;11.40;99.90
52941;DHT22;62001;53.366;6.636;2023-05-23T06:40:58;11.50;99.90
52941;DHT22;62001;53.366;6.636;2023-05-23T06:43:24;11.50;99.90
52941;DHT22;62001;53.366;6.636;2023-05-23T06:45:50;11.50;99.90
52941;DHT22;62001;53.366;6.636;2023-05-23T06:48:16;11.50;99.90
52941;DHT22;62001;53.366;6.636;2023-05-23T06:50:42;11.40;99.90
52941;DHT22;62001;53.366;6.636;2023-05-23T06:53:08;11.40;99.90
52941;DHT22;62001;53.366;6.636;2023-05-23T06:55:34;11.40;99.90
52941;DHT22;62001;53.366;6.636;2023-05-23T06:58:00;11.50;99.90
52941;DHT22;62001;53.366;6.636;2023-05-23T07:00:29;11.50;99.90
52941;DHT22;62001;53.366;6.636;2023-05-23T07:02:56;11.40;99.90
52941;DHT22;62001;53.366;6.636;2023-05-23T07:05:26;11.40;99.90
52941;DHT22;62001;53.366;6.636;2023-05-23T07:07:52;11.40;99.90
52941;DHT22;62001;53.366;6.636;2023-05-23T07:10:18;11.40;99.90
52941;DHT22;62001;53.366;6.636;2023-05-23T07:12:45;11.50;99.90
52941;DHT22;62001;53.366;6.636;2023-05-23T07:15:11;11.50;99.90
52941;DHT22;62001;53.366;6.636;2023-05-23T07:17:39;11.50;99.90
52941;DHT22;62001;53.366;6.636;2023-05-23T07:20:06;11.40;99.90
52941;DHT22;62001;53.366;6.636;2023-05-23T07:22:32;11.50;99.90
52941;DHT22;62001;53.366;6.636;2023-05-23T07:24:58;11.40;99.90
52941;DHT22;62001;53.366;6.636;2023-05-23T07:27:26;11.50;99.90
52941;DHT22;62001;53.366;6.636;2023-05-23T07:29:52;11.50;99.90
52941;DHT22;62001;53.366;6.636;2023-05-23T07:32:18;11.60;99.90
52941;DHT22;62001;53.366;6.636;2023-05-23T07:34:43;11.80;99.90
52941;DHT22;62001;53.366;6.636;2023-05-23T07:37:09;11.90;99.90
52941;DHT22;62001;53.366;6.636;2023-05-23T07:39:35;12.00;99.90
52941;DHT22;62001;53.366;6.636;2023-05-23T07:42:01;12.10;99.90
52941;DHT22;62001;53.366;6.636;2023-05-23T07:44:27;12.20;99.90
52941;DHT22;62001;53.366;6.636;2023-05-23T07:46:53;12.20;99.90
52941;DHT22;62001;53.366;6.636;2023-05-23T07:49:19;12.40;99.90
52941;DHT22;62001;53.366;6.636;2023-05-23T07:51:45;12.50;99.90
52941;DHT22;62001;53.366;6.636;2023-05-23T07:54:11;12.50;99.90
52941;DHT22;62001;53.366;6.636;2023-05-23T07:56:37;12.50;99.90
52941;DHT22;62001;53.366;6.636;2023-05-23T07:59:04;12.50;99.90
52941;DHT22;62001;53.366;6.636;2023-05-23T08:01:30;12.50;99.90
52941;DHT22;62001;53.366;6.636;2023-05-23T08:03:55;12.50;99.90
52941;DHT22;62001;53.366;6.636;2023-05-23T08:06:21;12.60;99.90
52941;DHT22;62001;53.366;6.636;2023-05-23T08:08:47;13.00;99.90
52941;DHT22;62001;53.366;6.636;2023-05-23T08:11:13;13.20;99.90
52941;DHT22;62001;53.366;6.636;2023-05-23T08:13:40;13.20;99.90
52941;DHT22;62001;53.366;6.636;2023-05-23T08:16:06;13.00;99.90
52941;DHT22;62001;53.366;6.636;2023-05-23T08:18:32;13.00;99.90
52941;DHT22;62001;53.366;6.636;2023-05-23T08:20:57;13.30;99.90
52941;DHT22;62001;53.366;6.636;2023-05-23T08:23:23;13.60;99.90
52941;DHT22;62001;53.366;6.636;2023-05-23T08:25:51;13.80;99.90
52941;DHT22;62001;53.366;6.636;2023-05-23T08:28:17;13.70;99.90
52941;DHT22;62001;53.366;6.636;2023-05-23T08:30:43;13.60;99.90
52941;DHT22;62001;53.366;6.636;2023-05-23T08:33:08;13.60;99.90
52941;DHT22;62001;53.366;6.636;2023-05-23T08:35:34;13.70;99.90
52941;DHT22;62001;53.366;6.636;2023-05-23T08:38:02;13.90;99.90
52941;DHT22;62001;53.366;6.636;2023-05-23T08:40:30;14.00;99.90
52941;DHT22;62001;53.366;6.636;2023-05-23T08:42:57;14.10;99.90
52941;DHT22;62001;53.366;6.636;2023-05-23T08:45:23;13.80;99.90
52941;DHT22;62001;53.366;6.636;2023-05-23T08:47:51;13.60;99.90
52941;DHT22;62001;53.366;6.636;2023-05-23T08:50:17;13.50;99.90
52941;DHT22;62001;53.366;6.636;2023-05-23T08:55:18;13.50;99.90
52941;DHT22;62001;53.366;6.636;2023-05-23T08:57:45;13.30;99.90
52941;DHT22;62001;53.366;6.636;2023-05-23T09:00:11;13.40;99.90
52941;DHT22;62001;53.366;6.636;2023-05-23T09:02:44;13.50;99.90
52941;DHT22;62001;53.366;6.636;2023-05-23T09:05:11;13.50;99.90
52941;DHT22;62001;53.366;6.636;2023-05-23T09:07:38;13.30;99.90
52941;DHT22;62001;53.366;6.636;2023-05-23T09:10:05;13.30;99.90
52941;DHT22;62001;53.366;6.636;2023-05-23T09:12:35;13.40;99.90
52941;DHT22;62001;53.366;6.636;2023-05-23T09:15:06;13.50;99.90
52941;DHT22;62001;53.366;6.636;2023-05-23T09:17:35;13.70;99.90
52941;DHT22;62001;53.366;6.636;2023-05-23T09:20:07;13.80;99.90
52941;DHT22;62001;53.366;6.636;2023-05-23T09:22:35;14.10;99.90
52941;DHT22;62001;53.366;6.636;2023-05-23T09:25:01;14.10;99.90
52941;DHT22;62001;53.366;6.636;2023-05-23T09:27:27;14.20;99.90
52941;DHT22;62001;53.366;6.636;2023-05-23T09:29:53;14.20;99.90
52941;DHT22;62001;53.366;6.636;2023-05-23T09:32:19;14.00;99.90
52941;DHT22;62001;53.366;6.636;2023-05-23T09:34:58;14.10;99.90
52941;DHT22;62001;53.366;6.636;2023-05-23T09:37:32;14.30;99.90
52941;DHT22;62001;53.366;6.636;2023-05-23T09:40:06;14.50;99.90
52941;DHT22;62001;53.366;6.636;2023-05-23T09:42:34;14.80;99.90
52941;DHT22;62001;53.366;6.636;2023-05-23T09:45:01;14.60;99.90
52941;DHT22;62001;53.366;6.636;2023-05-23T09:47:27;14.50;99.90
52941;DHT22;62001;53.366;6.636;2023-05-23T09:49:53;14.40;99.90
52941;DHT22;62001;53.366;6.636;2023-05-23T09:52:20;14.30;99.90
52941;DHT22;62001;53.366;6.636;2023-05-23T09:54:46;14.10;99.90
52941;DHT22;62001;53.366;6.636;2023-05-23T09:57:14;14.10;99.90
52941;DHT22;62001;53.366;6.636;2023-05-23T09:59:52;14.20;99.90
52941;DHT22;62001;53.366;6.636;2023-05-23T10:08:20;14.70;99.90
52941;DHT22;62001;53.366;6.636;2023-05-23T10:13:25;14.60;99.90
52941;DHT22;62001;53.366;6.636;2023-05-23T10:18:42;14.40;99.90
52941;DHT22;62001;53.366;6.636;2023-05-23T10:21:11;14.40;99.90
52941;DHT22;62001;53.366;6.636;2023-05-23T10:23:38;14.40;99.90
52941;DHT22;62001;53.366;6.636;2023-05-23T10:26:05;14.30;99.90
52941;DHT22;62001;53.366;6.636;2023-05-23T10:28:31;14.10;99.90
52941;DHT22;62001;53.366;6.636;2023-05-23T10:30:58;14.00;99.90
52941;DHT22;62001;53.366;6.636;2023-05-23T10:33:26;14.10;99.90
52941;DHT22;62001;53.366;6.636;2023-05-23T10:36:11;14.10;99.90
52941;DHT22;62001;53.366;6.636;2023-05-23T10:38:50;14.30;99.90
52941;DHT22;62001;53.366;6.636;2023-05-23T10:41:30;14.30;99.90
52941;DHT22;62001;53.366;6.636;2023-05-23T10:47:03;14.30;99.90
52941;DHT22;62001;53.366;6.636;2023-05-23T10:49:46;14.40;99.90
52941;DHT22;62001;53.366;6.636;2023-05-23T10:52:16;14.50;99.90
52941;DHT22;62001;53.366;6.636;2023-05-23T10:54:43;14.40;99.90
52941;DHT22;62001;53.366;6.636;2023-05-23T10:57:11;14.10;99.90
52941;DHT22;62001;53.366;6.636;2023-05-23T10:59:40;13.70;99.90
52941;DHT22;62001;53.366;6.636;2023-05-23T11:02:12;13.40;99.90
52941;DHT22;62001;53.366;6.636;2023-05-23T11:04:39;13.40;99.90
52941;DHT22;62001;53.366;6.636;2023-05-23T11:07:05;13.50;99.90
52941;DHT22;62001;53.366;6.636;2023-05-23T11:10:10;13.50;99.90
52941;DHT22;62001;53.366;6.636;2023-05-23T11:12:41;13.70;99.90
52941;DHT22;62001;53.366;6.636;2023-05-23T11:17:51;14.00;99.90
52941;DHT22;62001;53.366;6.636;2023-05-23T11:20:19;14.10;99.90
52941;DHT22;62001;53.366;6.636;2023-05-23T11:23:01;14.10;99.90
52941;DHT22;62001;53.366;6.636;2023-05-23T11:25:50;14.20;99.90
52941;DHT22;62001;53.366;6.636;2023-05-23T11:28:17;14.10;99.90
52941;DHT22;62001;53.366;6.636;2023-05-23T11:30:43;14.10;99.90
52941;DHT22;62001;53.366;6.636;2023-05-23T11:33:13;14.20;99.90
52941;DHT22;62001;53.366;6.636;2023-05-23T11:35:44;14.40;99.90
52941;DHT22;62001;53.366;6.636;2023-05-23T11:38:11;14.40;99.90
52941;DHT22;62001;53.366;6.636;2023-05-23T11:40:44;14.20;99.90
52941;DHT22;62001;53.366;6.636;2023-05-23T11:43:18;14.10;99.90
52941;DHT22;62001;53.366;6.636;2023-05-23T11:45:45;14.10;99.90
52941;DHT22;62001;53.366;6.636;2023-05-23T11:48:13;13.90;99.90
52941;DHT22;62001;53.366;6.636;2023-05-23T11:50:47;13.80;99.90
52941;DHT22;62001;53.366;6.636;2023-05-23T11:53:13;13.70;99.90
52941;DHT22;62001;53.366;6.636;2023-05-23T11:55:48;13.70;99.90
52941;DHT22;62001;53.366;6.636;2023-05-23T11:58:14;13.70;99.90
52941;DHT22;62001;53.366;6.636;2023-05-23T12:00:43;14.00;99.90
52941;DHT22;62001;53.366;6.636;2023-05-23T12:03:09;14.10;99.90
52941;DHT22;62001;53.366;6.636;2023-05-23T12:05:36;14.20;99.90
52941;DHT22;62001;53.366;6.636;2023-05-23T12:08:02;14.30;99.90
52941;DHT22;62001;53.366;6.636;2023-05-23T12:10:28;14.20;99.90
52941;DHT22;62001;53.366;6.636;2023-05-23T12:12:54;14.10;99.90
52941;DHT22;62001;53.366;6.636;2023-05-23T12:15:25;13.80;99.90
52941;DHT22;62001;53.366;6.636;2023-05-23T12:17:54;13.90;99.90
52941;DHT22;62001;53.366;6.636;2023-05-23T12:20:21;13.90;99.90
52941;DHT22;62001;53.366;6.636;2023-05-23T12:22:47;13.80;99.90
52941;DHT22;62001;53.366;6.636;2023-05-23T12:25:13;13.80;99.90
52941;DHT22;62001;53.366;6.636;2023-05-23T12:27:40;13.70;99.90
52941;DHT22;62001;53.366;6.636;2023-05-23T12:30:13;13.60;99.90
52941;DHT22;62001;53.366;6.636;2023-05-23T12:32:40;13.80;99.90
52941;DHT22;62001;53.366;6.636;2023-05-23T12:35:08;14.10;99.90
52941;DHT22;62001;53.366;6.636;2023-05-23T12:37:36;14.40;99.90
52941;DHT22;62001;53.366;6.636;2023-05-23T12:40:13;14.50;99.90
52941;DHT22;62001;53.366;6.636;2023-05-23T12:42:52;14.60;99.90
52941;DHT22;62001;53.366;6.636;2023-05-23T12:45:31;14.60;99.90
52941;DHT22;62001;53.366;6.636;2023-05-23T12:47:57;14.60;99.90
52941;DHT22;62001;53.366;6.636;2023-05-23T12:50:23;14.40;99.90
52941;DHT22;62001;53.366;6.636;2023-05-23T12:52:49;14.20;99.90
52941;DHT22;62001;53.366;6.636;2023-05-23T12:55:15;14.20;99.90
52941;DHT22;62001;53.366;6.636;2023-05-23T12:57:40;14.30;99.90
52941;DHT22;62001;53.366;6.636;2023-05-23T13:00:07;14.30;99.90
52941;DHT22;62001;53.366;6.636;2023-05-23T13:02:33;14.30;99.90
52941;DHT22;62001;53.366;6.636;2023-05-23T13:04:59;14.20;99.90
52941;DHT22;62001;53.366;6.636;2023-05-23T13:07:25;14.20;99.90
52941;DHT22;62001;53.366;6.636;2023-05-23T13:09:51;14.20;99.90
52941;DHT22;62001;53.366;6.636;2023-05-23T13:12:17;14.30;99.90
52941;DHT22;62001;53.366;6.636;2023-05-23T13:14:43;14.40;99.90
52941;DHT22;62001;53.366;6.636;2023-05-23T13:17:08;14.50;99.90
52941;DHT22;62001;53.366;6.636;2023-05-23T13:19:34;14.50;99.90
52941;DHT22;62001;53.366;6.636;2023-05-23T13:22:00;14.40;99.90
52941;DHT22;62001;53.366;6.636;2023-05-23T13:24:29;14.60;99.90
52941;DHT22;62001;53.366;6.636;2023-05-23T13:26:55;14.70;99.90
52941;DHT22;62001;53.366;6.636;2023-05-23T13:29:21;14.50;99.90
52941;DHT22;62001;53.366;6.636;2023-05-23T13:31:47;14.40;99.90
52941;DHT22;62001;53.366;6.636;2023-05-23T13:34:13;14.20;99.90
52941;DHT22;62001;53.366;6.636;2023-05-23T13:36:39;14.10;99.90
52941;DHT22;62001;53.366;6.636;2023-05-23T13:39:04;13.90;99.90
52941;DHT22;62001;53.366;6.636;2023-05-23T13:41:31;13.90;99.90
52941;DHT22;62001;53.366;6.636;2023-05-23T13:43:57;13.90;99.90
52941;DHT22;62001;53.366;6.636;2023-05-23T13:46:23;14.00;99.90
52941;DHT22;62001;53.366;6.636;2023-05-23T13:48:48;14.20;99.90
52941;DHT22;62001;53.366;6.636;2023-05-23T13:51:14;14.10;99.90
52941;DHT22;62001;53.366;6.636;2023-05-23T13:53:40;14.00;99.90
52941;DHT22;62001;53.366;6.636;2023-05-23T13:56:06;13.80;99.90
52941;DHT22;62001;53.366;6.636;2023-05-23T13:58:32;13.80;99.90
52941;DHT22;62001;53.366;6.636;2023-05-23T14:00:58;13.60;99.90
52941;DHT22;62001;53.366;6.636;2023-05-23T14:03:24;13.70;99.90
52941;DHT22;62001;53.366;6.636;2023-05-23T14:05:50;13.90;99.90
52941;DHT22;62001;53.366;6.636;2023-05-23T14:08:15;13.80;99.90
52941;DHT22;62001;53.366;6.636;2023-05-23T14:10:41;13.70;99.90
52941;DHT22;62001;53.366;6.636;2023-05-23T14:13:07;13.60;99.90
52941;DHT22;62001;53.366;6.636;2023-05-23T14:15:33;13.50;99.90
52941;DHT22;62001;53.366;6.636;2023-05-23T14:18:00;13.60;99.90
52941;DHT22;62001;53.366;6.636;2023-05-23T14:20:25;13.80;99.90
52941;DHT22;62001;53.366;6.636;2023-05-23T14:22:51;13.90;99.90
52941;DHT22;62001;53.366;6.636;2023-05-23T14:25:18;14.10;99.90
52941;DHT22;62001;53.366;6.636;2023-05-23T14:27:44;14.00;99.90
52941;DHT22;62001;53.366;6.636;2023-05-23T14:30:10;13.80;99.90
52941;DHT22;62001;53.366;6.636;2023-05-23T14:32:36;13.70;99.90
52941;DHT22;62001;53.366;6.636;2023-05-23T14:35:09;13.60;99.90
52941;DHT22;62001;53.366;6.636;2023-05-23T14:37:35;13.60;99.90
52941;DHT22;62001;53.366;6.636;2023-05-23T14:40:03;13.50;99.90
52941;DHT22;62001;53.366;6.636;2023-05-23T14:42:29;13.50;99.90
52941;DHT22;62001;53.366;6.636;2023-05-23T14:44:55;13.50;99.90
52941;DHT22;62001;53.366;6.636;2023-05-23T14:47:20;13.50;99.90
52941;DHT22;62001;53.366;6.636;2023-05-23T14:49:48;13.50;99.90
52941;DHT22;62001;53.366;6.636;2023-05-23T14:52:13;13.60;99.90
52941;DHT22;62001;53.366;6.636;2023-05-23T14:54:39;13.60;99.90
52941;DHT22;62001;53.366;6.636;2023-05-23T14:57:06;13.50;99.90
52941;DHT22;62001;53.366;6.636;2023-05-23T14:59:34;13.40;99.90
52941;DHT22;62001;53.366;6.636;2023-05-23T15:02:02;13.40;99.90
52941;DHT22;62001;53.366;6.636;2023-05-23T15:04:28;13.40;99.90
52941;DHT22;62001;53.366;6.636;2023-05-23T15:06:54;13.50;99.90
52941;DHT22;62001;53.366;6.636;2023-05-23T15:09:20;13.50;99.90
52941;DHT22;62001;53.366;6.636;2023-05-23T15:11:46;13.50;99.90
52941;DHT22;62001;53.366;6.636;2023-05-23T15:14:14;13.60;99.90
52941;DHT22;62001;53.366;6.636;2023-05-23T15:16:41;13.60;99.90
52941;DHT22;62001;53.366;6.636;2023-05-23T15:19:09;13.60;99.90
52941;DHT22;62001;53.366;6.636;2023-05-23T15:21:35;13.60;99.90
52941;DHT22;62001;53.366;6.636;2023-05-23T15:24:01;13.80;99.90
52941;DHT22;62001;53.366;6.636;2023-05-23T15:26:28;13.90;99.90
52941;DHT22;62001;53.366;6.636;2023-05-23T15:28:54;13.90;99.90
52941;DHT22;62001;53.366;6.636;2023-05-23T15:31:20;13.80;99.90
52941;DHT22;62001;53.366;6.636;2023-05-23T15:33:46;13.60;99.90
52941;DHT22;62001;53.366;6.636;2023-05-23T15:36:12;13.50;99.90
52941;DHT22;62001;53.366;6.636;2023-05-23T15:38:39;13.50;99.90
52941;DHT22;62001;53.366;6.636;2023-05-23T15:41:04;13.70;99.90
52941;DHT22;62001;53.366;6.636;2023-05-23T15:43:33;13.80;99.90
52941;DHT22;62001;53.366;6.636;2023-05-23T15:46:00;13.80;99.90
52941;DHT22;62001;53.366;6.636;2023-05-23T15:48:26;13.90;99.90
52941;DHT22;62001;53.366;6.636;2023-05-23T15:50:52;14.00;99.90
52941;DHT22;62001;53.366;6.636;2023-05-23T15:53:17;14.00;99.90
52941;DHT22;62001;53.366;6.636;2023-05-23T15:55:43;14.10;99.90
52941;DHT22;62001;53.366;6.636;2023-05-23T15:58:09;14.10;99.90